createdAt,value
2023-02-15T00:01:34.552Z,7.43
2023-02-15T00:04:01.186Z,6.68
2023-02-15T00:06:27.770Z,7.00
2023-02-15T00:08:55.831Z,7.63
2023-02-15T00:11:40.942Z,8.57
2023-02-15T00:14:09.308Z,8.10
2023-02-15T00:16:36.921Z,8.38
2023-02-15T00:19:04.095Z,7.82
2023-02-15T00:21:32.100Z,8.38
2023-02-15T00:23:59.685Z,8.25
2023-02-15T00:26:27.197Z,7.18
2023-02-15T00:28:53.849Z,7.25
2023-02-15T00:31:20.413Z,7.20
2023-02-15T00:33:47.329Z,7.95
2023-02-15T00:38:40.420Z,6.72
2023-02-15T00:41:08.930Z,7.97
2023-02-15T00:43:36.383Z,7.82
2023-02-15T00:46:05.148Z,8.65
2023-02-15T00:48:32.002Z,8.35
2023-02-15T00:53:27.556Z,7.35
2023-02-15T00:55:54.465Z,7.80
2023-02-15T00:58:21.274Z,7.32
2023-02-15T01:03:16.634Z,6.80
2023-02-15T01:05:43.445Z,7.63
2023-02-15T01:10:36.790Z,6.47
2023-02-15T01:13:03.632Z,7.25
2023-02-15T01:15:30.206Z,7.78
2023-02-15T01:17:56.687Z,7.30
2023-02-15T01:20:27.091Z,6.85
2023-02-15T01:22:54.818Z,8.00
2023-02-15T01:25:23.179Z,7.68
2023-02-15T01:27:49.744Z,8.10
2023-02-15T01:30:17.022Z,7.55
2023-02-15T01:32:44.551Z,7.43
2023-02-15T01:35:11.904Z,7.90
2023-02-15T01:37:38.693Z,8.50
2023-02-15T01:42:32.781Z,6.55
2023-02-15T01:45:21.805Z,7.00
2023-02-15T01:48:05.696Z,8.13
2023-02-15T01:50:43.863Z,7.65
2023-02-15T01:53:16.218Z,8.32
2023-02-15T01:55:50.858Z,8.48
2023-02-15T01:58:17.889Z,9.52
2023-02-15T02:00:44.748Z,9.15
2023-02-15T02:03:11.524Z,8.48
2023-02-15T02:08:05.744Z,8.43
2023-02-15T02:13:02.882Z,7.68
2023-02-15T02:15:45.626Z,7.15
2023-02-15T02:18:23.931Z,8.30
2023-02-15T02:21:06.509Z,7.65
2023-02-15T02:24:00.700Z,8.60
2023-02-15T02:26:43.052Z,7.97
2023-02-15T02:29:33.909Z,8.48
2023-02-15T02:32:54.614Z,7.60
2023-02-15T02:35:25.912Z,7.45
2023-02-15T02:38:02.495Z,7.68
2023-02-15T02:40:37.720Z,6.87
2023-02-15T02:43:20.010Z,7.47
2023-02-15T02:45:58.172Z,7.90
2023-02-15T02:48:30.377Z,8.80
2023-02-15T02:50:56.881Z,9.38
2023-02-15T02:53:23.527Z,7.45
2023-02-15T02:56:27.744Z,8.38
2023-02-15T02:59:10.998Z,7.97
2023-02-15T03:01:47.133Z,8.35
2023-02-15T03:04:20.205Z,8.73
2023-02-15T03:06:53.314Z,8.25
2023-02-15T03:09:35.677Z,8.85
2023-02-15T03:12:04.701Z,9.18
2023-02-15T03:14:31.485Z,10.00
2023-02-15T03:19:30.745Z,8.93
2023-02-15T03:22:10.194Z,8.80
2023-02-15T03:24:50.382Z,9.65
2023-02-15T03:27:21.542Z,8.80
2023-02-15T03:29:52.845Z,9.50
2023-02-15T03:32:20.417Z,8.02
2023-02-15T03:34:47.325Z,9.07
2023-02-15T03:37:32.323Z,9.15
2023-02-15T03:40:39.019Z,9.00
2023-02-15T03:43:17.952Z,8.93
2023-02-15T03:45:57.841Z,8.70
2023-02-15T03:48:36.487Z,7.97
2023-02-15T03:51:26.419Z,7.80
2023-02-15T03:53:55.027Z,8.45
2023-02-15T03:59:07.892Z,7.75
2023-02-15T04:02:11.534Z,8.55
2023-02-15T04:04:42.654Z,8.02
2023-02-15T04:07:10.515Z,8.75
2023-02-15T04:09:55.539Z,8.32
2023-02-15T04:12:21.987Z,7.75
2023-02-15T04:15:07.195Z,8.23
2023-02-15T04:17:33.763Z,8.27
2023-02-15T04:20:18.777Z,8.10
2023-02-15T04:23:04.217Z,7.57
2023-02-15T04:25:30.904Z,8.07
2023-02-15T04:27:57.419Z,9.18
2023-02-15T04:30:25.917Z,8.40
2023-02-15T04:32:52.512Z,7.95
2023-02-15T04:35:19.226Z,8.35
2023-02-15T04:37:45.906Z,8.02
2023-02-15T04:40:14.635Z,6.90
2023-02-15T04:42:41.212Z,8.98
2023-02-15T04:45:08.261Z,8.05
2023-02-15T04:47:35.080Z,7.40
2023-02-15T04:52:28.058Z,8.20
2023-02-15T04:54:54.576Z,8.50
2023-02-15T04:57:21.063Z,8.82
2023-02-15T04:59:47.560Z,8.10
2023-02-15T05:02:14.158Z,8.85
2023-02-15T05:04:40.610Z,8.75
2023-02-15T05:07:07.070Z,8.75
2023-02-15T05:09:33.520Z,7.97
2023-02-15T05:11:59.978Z,8.45
2023-02-15T05:14:26.550Z,7.85
2023-02-15T05:16:54.895Z,6.65
2023-02-15T05:19:21.445Z,6.20
2023-02-15T05:21:47.937Z,5.25
2023-02-15T05:24:33.206Z,5.70
2023-02-15T05:27:18.055Z,6.75
2023-02-15T05:29:44.541Z,7.45
2023-02-15T05:32:14.191Z,6.93
2023-02-15T05:34:40.867Z,7.03
2023-02-15T05:37:08.567Z,7.05
2023-02-15T05:39:35.097Z,7.43
2023-02-15T05:42:01.531Z,8.43
2023-02-15T05:44:27.984Z,9.27
2023-02-15T05:46:54.436Z,9.02
2023-02-15T05:49:20.989Z,7.75
2023-02-15T05:51:47.486Z,7.60
2023-02-15T05:54:14.051Z,7.70
2023-02-15T05:56:40.521Z,7.38
2023-02-15T05:59:06.954Z,7.93
2023-02-15T06:01:33.528Z,7.35
2023-02-15T06:04:00.130Z,8.85
2023-02-15T06:06:26.579Z,7.38
2023-02-15T06:08:53.083Z,8.50
2023-02-15T06:11:19.530Z,8.27
2023-02-15T06:13:46.058Z,8.90
2023-02-15T06:16:12.541Z,8.52
2023-02-15T06:18:39.172Z,9.13
2023-02-15T06:21:05.684Z,8.18
2023-02-15T06:23:32.106Z,8.20
2023-02-15T06:25:58.576Z,9.10
2023-02-15T06:28:26.489Z,8.55
2023-02-15T06:30:53.428Z,8.85
2023-02-15T06:33:20.042Z,7.88
2023-02-15T06:35:47.555Z,7.70
2023-02-15T06:38:14.133Z,8.15
2023-02-15T06:40:40.696Z,7.05
2023-02-15T06:43:07.236Z,8.02
2023-02-15T06:45:33.677Z,7.65
2023-02-15T06:48:00.182Z,7.70
2023-02-15T06:50:26.639Z,8.02
2023-02-15T06:52:57.970Z,7.40
2023-02-15T06:55:24.406Z,7.22
2023-02-15T06:57:51.178Z,8.02
2023-02-15T07:02:45.638Z,7.38
2023-02-15T07:05:12.157Z,7.85
2023-02-15T07:07:38.642Z,7.22
2023-02-15T07:10:05.762Z,9.40
2023-02-15T07:12:45.313Z,8.88
2023-02-15T07:15:14.643Z,8.13
2023-02-15T07:17:41.615Z,7.93
2023-02-15T07:20:17.540Z,8.23
2023-02-15T07:22:44.334Z,7.68
2023-02-15T07:25:12.478Z,8.20
2023-02-15T07:27:39.751Z,7.32
2023-02-15T07:30:08.403Z,8.57
2023-02-15T07:32:35.082Z,8.13
2023-02-15T07:35:02.506Z,7.90
2023-02-15T07:37:29.299Z,7.60
2023-02-15T07:42:23.169Z,6.85
2023-02-15T07:44:50.054Z,8.23
2023-02-15T07:47:16.622Z,8.45
2023-02-15T07:49:43.169Z,8.18
2023-02-15T07:52:09.806Z,7.78
2023-02-15T07:54:38.954Z,8.52
2023-02-15T07:57:05.411Z,7.15
2023-02-15T07:59:32.374Z,6.93
2023-02-15T08:01:58.855Z,6.63
2023-02-15T08:04:25.326Z,7.70
2023-02-15T08:06:54.829Z,7.20
2023-02-15T08:09:21.456Z,6.75
2023-02-15T08:11:48.555Z,6.18
2023-02-15T08:14:15.144Z,7.90
2023-02-15T08:16:42.881Z,9.63
2023-02-15T08:19:11.118Z,7.40
2023-02-15T08:21:40.196Z,8.75
2023-02-15T08:24:08.673Z,7.88
2023-02-15T08:26:36.120Z,7.40
2023-02-15T08:29:03.362Z,9.20
2023-02-15T08:31:30.478Z,7.07
2023-02-15T08:33:58.129Z,7.25
2023-02-15T08:36:29.669Z,7.03
2023-02-15T08:39:02.490Z,7.03
2023-02-15T08:41:31.848Z,6.80
2023-02-15T08:44:00.955Z,7.15
2023-02-15T08:46:30.353Z,6.53
2023-02-15T08:48:57.444Z,6.45
2023-02-15T08:51:26.764Z,6.63
2023-02-15T08:53:55.571Z,6.65
2023-02-15T08:56:25.430Z,6.55
2023-02-15T08:58:51.855Z,7.35
2023-02-15T09:01:22.014Z,6.63
2023-02-15T09:03:51.589Z,7.05
2023-02-15T09:06:18.395Z,7.10
2023-02-15T09:11:14.582Z,6.38
2023-02-15T09:13:41.074Z,7.07
2023-02-15T09:16:09.684Z,7.28
2023-02-15T09:18:38.676Z,6.90
2023-02-15T09:21:17.125Z,7.22
2023-02-15T09:23:45.492Z,6.60
2023-02-15T09:26:14.600Z,6.18
2023-02-15T09:28:41.371Z,6.45
2023-02-15T09:33:39.939Z,6.15
2023-02-15T09:36:14.335Z,6.40
2023-02-15T09:38:40.873Z,6.55
2023-02-15T09:41:28.276Z,6.45
2023-02-15T09:44:15.523Z,6.43
2023-02-15T09:47:00.428Z,6.00
2023-02-15T09:50:00.766Z,5.97
2023-02-15T09:52:36.072Z,6.38
2023-02-15T09:58:09.429Z,6.18
2023-02-15T10:01:04.221Z,7.00
2023-02-15T21:40:36.543Z,9.13
2023-02-15T21:43:21.763Z,11.35
2023-02-15T21:46:26.633Z,13.25
2023-02-15T21:48:53.200Z,13.35
2023-02-15T21:51:38.159Z,13.15
2023-02-15T21:54:04.806Z,11.18
2023-02-15T21:56:31.303Z,13.93
2023-02-15T21:58:57.726Z,12.23
2023-02-15T22:01:26.875Z,12.45
2023-02-15T22:03:55.926Z,11.20
2023-02-15T22:06:22.525Z,12.00
2023-02-15T22:08:49.339Z,12.13
2023-02-15T22:13:44.740Z,10.50
2023-02-15T22:16:19.798Z,12.02
2023-02-15T22:18:47.266Z,11.68
2023-02-15T22:21:16.570Z,11.82
2023-02-15T22:23:43.151Z,11.80
2023-02-15T22:26:23.813Z,12.25
2023-02-15T22:28:50.789Z,11.70
2023-02-15T22:31:20.831Z,11.52
2023-02-15T22:33:49.828Z,12.07
2023-02-15T22:36:27.939Z,13.32
2023-02-15T22:38:55.194Z,13.65
2023-02-15T22:41:25.670Z,13.35
2023-02-15T22:43:53.056Z,14.13
2023-02-15T22:46:22.762Z,13.38
2023-02-15T22:48:50.210Z,14.93
2023-02-15T22:51:20.157Z,13.77
2023-02-15T22:53:49.589Z,14.10
2023-02-15T22:56:20.154Z,14.63
2023-02-15T22:58:49.519Z,13.93
2023-02-15T23:01:36.830Z,14.00
2023-02-15T23:04:04.344Z,14.27
2023-02-15T23:06:31.689Z,13.63
2023-02-15T23:09:00.857Z,13.45
2023-02-15T23:11:27.642Z,14.93
2023-02-15T23:16:20.855Z,12.43
2023-02-15T23:18:47.554Z,14.60
2023-02-15T23:21:32.603Z,13.25
2023-02-15T23:24:19.291Z,13.80
2023-02-15T23:26:46.226Z,13.55
2023-02-15T23:29:19.255Z,15.50
2023-02-15T23:31:48.654Z,13.43
2023-02-15T23:34:19.364Z,15.60
2023-02-15T23:36:46.683Z,13.93
2023-02-15T23:39:34.277Z,15.82
2023-02-15T23:42:03.655Z,13.32
2023-02-15T23:44:30.667Z,13.50
2023-02-15T23:46:58.205Z,14.70
2023-02-15T23:49:24.970Z,14.38
2023-02-15T23:54:22.416Z,14.52
2023-02-15T23:56:52.435Z,15.40
2023-02-15T23:59:22.557Z,15.65
